Time;durP1;ratioP1;P1;durP2;ratioP2;P2;SDS_P1;SDS_P2;PMS_P1;PMS_P2;Temp;Humidity;BMP_temperature;BMP_pressure;BME280_temperature;BME280_humidity;BME280_pressure;Samples;Min_cycle;Max_cycle;Signal;HPM_P1;HPM_P2
2023/12/11 00:00:49;;;;;;;7.97;1.73;;;;;;;10.43;89.77;98842.38;7396846;19;20949;-63
2023/12/11 00:03:16;;;;;;;7.07;2.10;;;;;;;10.48;89.52;98858.47;7395004;19;20371;-64
2023/12/11 00:05:43;;;;;;;7.65;2.10;;;;;;;10.49;89.20;98960.81;7397667;19;20808;-63
2023/12/11 00:08:10;;;;;;;12.50;2.38;;;;;;;10.54;89.70;98872.66;7398542;19;20384;-64
2023/12/11 00:10:37;;;;;;;7.80;1.90;;;;;;;10.57;89.03;98872.25;7398237;19;20384;-64
2023/12/11 00:13:03;;;;;;;8.57;2.08;;;;;;;10.54;88.66;98870.00;7397556;19;20388;-63
2023/12/11 00:15:30;;;;;;;8.27;2.20;;;;;;;10.57;88.28;98862.44;7396962;19;20348;-63
2023/12/11 00:17:57;;;;;;;10.00;2.85;;;;;;;10.58;88.77;98897.72;7398565;19;20707;-63
2023/12/11 00:20:24;;;;;;;8.55;2.15;;;;;;;10.54;88.48;98885.91;7398763;19;20408;-62
2023/12/11 00:22:51;;;;;;;9.05;2.20;;;;;;;10.55;89.00;98912.22;7395937;19;20946;-61
2023/12/11 00:25:18;;;;;;;6.53;2.08;;;;;;;10.52;88.64;98903.88;7398603;19;20366;-63
2023/12/11 00:27:45;;;;;;;8.25;2.10;;;;;;;10.43;89.13;98887.44;7395637;19;20711;-63
2023/12/11 00:30:14;;;;;;;13.18;2.58;;;;;;;10.44;89.24;98909.50;7398187;19;20432;-62
2023/12/11 00:32:40;;;;;;;7.00;1.95;;;;;;;10.40;88.76;98920.50;7396684;19;20371;-63
2023/12/11 00:35:07;;;;;;;10.43;2.53;;;;;;;10.42;88.94;98900.94;7397607;19;20839;-63
2023/12/11 00:37:34;;;;;;;11.38;2.92;;;;;;;10.39;89.11;98896.88;7397065;19;20398;-62
2023/12/11 00:40:01;;;;;;;8.80;1.80;;;;;;;10.37;89.34;98894.44;7397580;19;20373;-61
2023/12/11 00:42:28;;;;;;;13.37;2.20;;;;;;;10.38;89.00;98898.72;7394097;19;20698;-62
2023/12/11 00:44:55;;;;;;;8.95;2.10;;;;;;;10.30;89.44;98908.78;7399050;19;20368;-61
2023/12/11 00:47:22;;;;;;;11.82;3.00;;;;;;;10.28;89.71;98900.19;7395985;19;20450;-61
2023/12/11 00:49:49;;;;;;;10.73;2.28;;;;;;;10.29;89.42;98907.16;7397448;19;20662;-62
2023/12/11 00:52:16;;;;;;;6.97;2.38;;;;;;;10.30;89.29;98911.44;7394593;19;20348;-62
2023/12/11 00:54:43;;;;;;;10.77;2.50;;;;;;;10.31;89.04;98910.41;7397214;19;20365;-62
2023/12/11 00:57:11;;;;;;;9.95;2.67;;;;;;;10.31;89.43;98916.53;7395834;19;20371;-62
2023/12/11 00:59:39;;;;;;;8.50;2.15;;;;;;;10.27;89.38;98910.00;7397099;19;20425;-62
2023/12/11 01:02:05;;;;;;;10.02;2.60;;;;;;;10.29;89.11;98902.69;7395212;19;20899;-62
2023/12/11 01:04:32;;;;;;;10.23;2.30;;;;;;;10.28;88.92;98955.84;7396335;19;20430;-63
2023/12/11 01:06:59;;;;;;;11.98;3.33;;;;;;;10.27;89.09;98909.19;7396298;19;20381;-62
2023/12/11 01:09:26;;;;;;;11.57;2.40;;;;;;;10.25;89.26;98905.94;7395120;19;20352;-63
2023/12/11 01:11:53;;;;;;;13.75;3.35;;;;;;;10.23;89.31;98955.72;7392459;19;20341;-63
2023/12/11 01:14:20;;;;;;;10.52;2.60;;;;;;;10.24;88.94;98957.31;7392235;19;20890;-61
2023/12/11 01:16:47;;;;;;;8.82;2.40;;;;;;;10.25;88.74;98954.47;7392664;19;20912;-62
2023/12/11 01:19:14;;;;;;;9.95;2.40;;;;;;;10.25;88.45;98943.06;7396193;19;20381;-61
2023/12/11 01:21:41;;;;;;;13.18;2.90;;;;;;;10.28;88.39;98945.25;7394733;19;20350;-62
2023/12/11 01:24:08;;;;;;;12.75;2.53;;;;;;;10.24;88.79;98962.63;7393872;19;20361;-61
2023/12/11 01:26:35;;;;;;;13.33;3.17;;;;;;;10.21;88.74;98958.56;7395247;19;20513;-60
2023/12/11 01:29:01;;;;;;;11.43;2.85;;;;;;;10.24;88.66;98955.47;7395940;19;20424;-61
2023/12/11 01:31:28;;;;;;;10.00;2.47;;;;;;;10.24;88.74;98968.72;7396306;19;20373;-62
2023/12/11 01:33:55;;;;;;;13.68;3.35;;;;;;;10.26;88.99;98968.50;7395703;19;20372;-60
2023/12/11 01:36:22;;;;;;;11.17;2.27;;;;;;;10.27;88.67;98978.91;7395728;19;20404;-57
2023/12/11 01:38:50;;;;;;;11.27;2.28;;;;;;;10.30;89.14;98975.03;7395241;19;20866;-59
2023/12/11 01:41:17;;;;;;;12.52;3.25;;;;;;;10.34;89.12;98968.28;7396393;19;20353;-60
2023/12/11 01:43:56;;;;;;;10.68;2.60;;;;;;;10.34;88.71;98978.88;7392642;19;20443;-60
2023/12/11 01:46:24;;;;;;;13.55;2.72;;;;;;;10.35;88.69;98981.31;7395684;19;20726;-60
2023/12/11 01:48:53;;;;;;;12.43;2.88;;;;;;;10.37;88.62;98978.44;7395491;19;20447;-61
2023/12/11 01:51:21;;;;;;;10.63;2.63;;;;;;;10.38;88.45;98999.44;7395121;19;20364;-60
2023/12/11 01:53:50;;;;;;;13.52;2.78;;;;;;;10.38;88.78;99002.09;7395289;19;20423;-61
2023/12/11 01:56:17;;;;;;;11.02;3.05;;;;;;;10.48;87.78;98998.97;7397146;19;20732;-60
2023/12/11 01:58:45;;;;;;;11.75;2.92;;;;;;;10.53;87.65;99015.03;7394477;19;20340;-61
2023/12/11 02:01:13;;;;;;;11.52;2.78;;;;;;;10.52;87.51;99002.81;7395306;19;20424;-60
2023/12/11 02:03:41;;;;;;;13.38;2.83;;;;;;;10.56;87.33;99019.91;7393406;19;20361;-62
2023/12/11 02:06:08;;;;;;;14.18;4.05;;;;;;;10.59;86.86;99016.81;7395569;19;20451;-58
2023/12/11 02:08:35;;;;;;;16.17;3.33;;;;;;;10.62;87.22;98999.66;7394564;19;20737;-61
2023/12/11 02:11:03;;;;;;;11.63;2.60;;;;;;;10.59;86.51;99002.75;7394774;19;20349;-61
2023/12/11 02:13:30;;;;;;;14.23;3.60;;;;;;;10.60;86.55;99010.50;7393885;19;20524;-60
2023/12/11 02:15:57;;;;;;;14.77;2.67;;;;;;;10.56;86.37;99004.00;7394810;19;20332;-61
2023/12/11 02:18:24;;;;;;;12.98;2.80;;;;;;;10.55;86.74;99012.97;7394685;19;20920;-61
2023/12/11 02:20:51;;;;;;;13.60;2.78;;;;;;;10.55;85.91;99007.66;7394389;19;20360;-59
2023/12/11 02:23:22;;;;;;;11.13;2.83;;;;;;;10.59;86.36;99008.06;7391659;19;20357;-58
2023/12/11 02:25:59;;;;;;;11.30;3.00;;;;;;;10.64;86.30;99021.47;7392909;19;20372;-60
2023/12/11 02:28:26;;;;;;;10.65;3.28;;;;;;;10.64;86.12;99033.91;7392721;19;20483;-60
2023/12/11 02:30:53;;;;;;;13.75;3.17;;;;;;;10.65;85.95;99022.28;7395094;19;20424;-61
2023/12/11 02:33:19;;;;;;;15.63;3.60;;;;;;;10.65;86.20;99014.31;7394660;19;20370;-59
2023/12/11 02:35:46;;;;;;;14.73;3.80;;;;;;;10.63;86.26;99016.41;7393979;19;20719;-59
2023/12/11 02:38:13;;;;;;;15.82;3.88;;;;;;;10.58;86.09;99012.56;7394348;19;20427;-60
2023/12/11 02:40:40;;;;;;;15.82;3.78;;;;;;;10.60;86.12;99031.72;7394346;19;20367;-60
2023/12/11 02:43:07;;;;;;;14.87;3.60;;;;;;;10.56;86.50;99030.53;7391962;19;20814;-59
2023/12/11 02:45:34;;;;;;;17.90;4.20;;;;;;;10.54;86.44;99016.66;7394937;19;20887;-58
2023/12/11 02:48:03;;;;;;;17.05;3.80;;;;;;;10.50;86.87;99026.06;7393924;19;20365;-60
2023/12/11 02:50:32;;;;;;;14.75;3.22;;;;;;;10.52;86.81;99015.25;7393137;19;20336;-58
2023/12/11 02:53:00;;;;;;;21.05;3.67;;;;;;;10.50;86.89;99028.72;7393064;19;20448;-58
2023/12/11 02:55:27;;;;;;;11.27;3.13;;;;;;;10.47;87.22;99015.88;7393023;19;20378;-59
2023/12/11 02:58:02;;;;;;;15.25;3.53;;;;;;;10.46;87.27;99014.28;7392010;19;20356;-58
2023/12/11 03:00:30;;;;;;;19.90;3.58;;;;;;;10.47;87.56;99013.25;7393106;19;20361;-59
2023/12/11 03:02:58;;;;;;;14.00;3.05;;;;;;;10.42;87.67;99018.38;7392130;19;20353;-60
2023/12/11 03:05:25;;;;;;;14.55;3.28;;;;;;;10.43;87.96;99005.94;7392971;19;20441;-59
2023/12/11 03:07:51;;;;;;;22.13;4.40;;;;;;;10.39;88.09;99016.16;7393046;19;20372;-59
2023/12/11 03:10:18;;;;;;;16.15;3.50;;;;;;;10.37;87.87;98997.00;7392552;19;20360;-59
2023/12/11 03:12:45;;;;;;;18.50;4.05;;;;;;;10.33;88.21;99003.78;7392280;19;20385;-63
2023/12/11 03:15:12;;;;;;;13.75;3.13;;;;;;;10.29;88.22;99011.34;7393418;19;20690;-57
2023/12/11 03:17:39;;;;;;;18.00;3.38;;;;;;;10.28;88.68;99003.56;7392638;19;20359;-60
2023/12/11 03:20:09;;;;;;;16.05;3.97;;;;;;;10.23;88.61;99003.41;7391351;19;20360;-60
2023/12/11 03:22:36;;;;;;;14.00;3.55;;;;;;;10.23;88.77;99000.75;7390829;19;20372;-60
2023/12/11 03:25:03;;;;;;;18.40;4.18;;;;;;;10.23;88.99;99004.22;7391967;19;20909;-58
2023/12/11 03:27:30;;;;;;;14.52;3.70;;;;;;;10.21;88.78;99007.06;7392338;19;20357;-59
2023/12/11 03:29:57;;;;;;;12.65;3.60;;;;;;;10.23;88.70;99003.41;7390873;19;20368;-60
2023/12/11 03:32:24;;;;;;;15.18;3.30;;;;;;;10.23;88.73;99014.00;7392084;19;20356;-61
2023/12/11 03:34:51;;;;;;;13.87;3.50;;;;;;;10.27;88.63;99001.94;7396292;19;20437;-58
2023/12/11 03:37:18;;;;;;;16.02;3.72;;;;;;;10.26;88.53;99013.56;7398892;19;20408;-60
2023/12/11 03:39:45;;;;;;;16.27;4.03;;;;;;;10.27;88.09;99009.91;7398994;19;20358;-58
2023/12/11 03:42:12;;;;;;;14.93;3.80;;;;;;;10.28;87.52;98999.06;7400309;19;20352;-59
2023/12/11 03:44:39;;;;;;;14.32;4.30;;;;;;;10.25;86.62;98996.06;7396649;19;20372;-60
2023/12/11 03:47:05;;;;;;;15.10;3.25;;;;;;;10.28;86.84;98996.41;7399045;19;20356;-60
2023/12/11 03:49:32;;;;;;;15.68;4.75;;;;;;;10.27;86.65;98999.31;7399094;19;20738;-60
2023/12/11 03:51:59;;;;;;;14.85;3.70;;;;;;;10.29;86.52;99003.38;7397573;19;20359;-60
2023/12/11 03:54:26;;;;;;;13.50;3.22;;;;;;;10.21;86.22;99001.75;7398366;19;20399;-60
2023/12/11 03:56:53;;;;;;;14.88;3.75;;;;;;;10.21;85.82;98991.16;7398086;19;20886;-57
2023/12/11 03:59:20;;;;;;;18.13;4.35;;;;;;;10.18;85.84;98985.50;7399211;19;20427;-61
2023/12/11 04:01:46;;;;;;;14.63;3.30;;;;;;;10.16;85.83;98991.00;7398549;19;20694;-59
2023/12/11 04:04:14;;;;;;;19.00;3.72;;;;;;;10.12;86.05;99011.00;7397058;19;20369;-58
2023/12/11 04:06:41;;;;;;;17.50;4.53;;;;;;;10.12;85.97;98992.47;7399226;19;20905;-56
2023/12/11 04:09:08;;;;;;;17.33;3.83;;;;;;;10.05;86.40;98991.69;7398425;19;20373;-59
2023/12/11 04:11:35;;;;;;;16.15;3.90;;;;;;;10.07;86.06;98983.50;7394328;19;20375;-59
2023/12/11 04:14:02;;;;;;;21.67;4.30;;;;;;;10.03;86.03;98982.31;7398965;19;20364;-60
2023/12/11 04:16:29;;;;;;;20.13;4.78;;;;;;;9.98;86.18;98991.72;7397395;19;20384;-57
2023/12/11 04:18:56;;;;;;;22.10;4.70;;;;;;;10.00;86.29;98989.66;7396981;19;20349;-60
2023/12/11 04:21:26;;;;;;;18.15;3.85;;;;;;;9.93;85.91;98996.84;7396710;19;20352;-60
2023/12/11 04:23:55;;;;;;;15.57;3.80;;;;;;;9.97;85.89;98984.00;7394356;19;20372;-59
2023/12/11 04:26:22;;;;;;;15.90;4.38;;;;;;;9.97;85.82;98978.69;7398597;19;20361;-59
2023/12/11 04:28:49;;;;;;;18.50;3.90;;;;;;;9.93;85.86;98988.09;7397390;19;20420;-59
2023/12/11 04:31:16;;;;;;;20.88;4.18;;;;;;;9.94;85.85;98974.63;7395688;19;20340;-60
2023/12/11 04:33:43;;;;;;;18.67;4.43;;;;;;;9.94;86.07;98963.22;7398494;19;20646;-60
2023/12/11 04:36:10;;;;;;;20.85;4.55;;;;;;;9.91;86.11;98969.75;7398257;19;20364;-60
2023/12/11 04:38:37;;;;;;;16.77;4.93;;;;;;;9.90;86.46;98969.97;7396688;19;20410;-60
2023/12/11 04:41:04;;;;;;;19.17;4.80;;;;;;;9.88;87.00;98977.31;7398191;19;20769;-59
2023/12/11 04:43:33;;;;;;;17.53;5.00;;;;;;;9.87;86.90;98984.44;7395184;19;20450;-60
2023/12/11 04:46:00;;;;;;;16.17;4.45;;;;;;;9.92;86.94;98971.38;7397366;19;20364;-59
2023/12/11 04:48:27;;;;;;;16.40;4.63;;;;;;;9.92;86.75;98967.91;7397553;19;20341;-59
2023/12/11 04:50:54;;;;;;;24.67;5.50;;;;;;;9.94;86.81;98973.81;7396832;19;20390;-58
2023/12/11 04:53:20;;;;;;;23.10;4.88;;;;;;;9.97;86.73;98974.22;7396595;19;20368;-58
2023/12/11 04:55:47;;;;;;;19.27;5.22;;;;;;;9.97;86.94;98960.16;7397937;19;20374;-57
2023/12/11 04:58:14;;;;;;;18.77;4.80;;;;;;;9.95;86.97;98967.50;7397541;19;20371;-58
2023/12/11 05:00:41;;;;;;;23.88;6.35;;;;;;;9.96;87.18;98975.22;7397171;19;20417;-58
2023/12/11 05:03:08;;;;;;;22.88;5.57;;;;;;;9.98;87.34;98969.72;7395232;19;20758;-60
2023/12/11 05:05:36;;;;;;;17.42;5.43;;;;;;;10.04;87.79;98965.41;7394864;19;21013;-59
2023/12/11 05:08:03;;;;;;;21.98;5.93;;;;;;;10.03;88.54;98972.56;7394804;19;20349;-59
2023/12/11 05:10:30;;;;;;;21.98;6.47;;;;;;;10.05;88.64;98970.50;7396734;19;20340;-59
2023/12/11 05:12:56;;;;;;;20.42;6.20;;;;;;;10.08;88.74;98961.31;7395994;19;20444;-58
2023/12/11 05:15:23;;;;;;;20.95;5.50;;;;;;;10.10;88.69;98967.22;7396981;19;20357;-59
2023/12/11 05:17:50;;;;;;;21.95;5.20;;;;;;;10.09;88.95;98955.78;7396230;19;20885;-59
2023/12/11 05:20:18;;;;;;;21.23;5.57;;;;;;;10.10;89.52;98951.31;7396267;19;20408;-59
2023/12/11 05:22:45;;;;;;;18.70;5.20;;;;;;;10.05;89.32;98949.31;7396631;19;20349;-59
2023/12/11 05:25:12;;;;;;;24.08;5.07;;;;;;;10.02;89.43;98943.63;7393276;19;20887;-59
2023/12/11 05:27:39;;;;;;;21.17;5.57;;;;;;;9.98;89.27;98953.81;7395941;19;20366;-59
2023/12/11 05:30:07;;;;;;;21.05;4.90;;;;;;;9.94;88.85;98947.31;7394898;19;20372;-59
2023/12/11 05:32:34;;;;;;;17.73;5.10;;;;;;;9.93;88.58;98943.06;7396236;19;20940;-59
2023/12/11 05:35:01;;;;;;;20.13;5.22;;;;;;;9.94;88.88;98955.28;7396249;19;20361;-59
2023/12/11 05:37:28;;;;;;;17.37;4.40;;;;;;;9.91;88.96;98953.06;7395422;19;20371;-58
2023/12/11 05:39:55;;;;;;;21.33;5.05;;;;;;;9.93;88.91;98930.63;7395775;19;20384;-59
2023/12/11 05:42:42;;;;;;;19.58;4.50;;;;;;;9.94;88.83;98934.88;7392829;19;20356;-60
2023/12/11 05:45:09;;;;;;;14.85;3.95;;;;;;;9.94;89.03;98939.38;7392839;19;20419;-59
2023/12/11 05:47:36;;;;;;;18.20;5.50;;;;;;;9.95;89.27;98928.59;7395444;19;20352;-59
2023/12/11 05:50:04;;;;;;;17.00;4.75;;;;;;;9.93;89.24;98935.13;7391992;19;20344;-58
2023/12/11 05:52:31;;;;;;;20.17;4.20;;;;;;;9.84;89.61;98931.09;7395303;19;20899;-59
2023/12/11 05:54:57;;;;;;;16.87;4.30;;;;;;;9.89;89.88;98923.34;7395945;19;20349;-59
2023/12/11 05:57:24;;;;;;;21.65;5.43;;;;;;;9.89;89.75;98928.63;7394681;19;20724;-58
2023/12/11 05:59:51;;;;;;;20.13;4.68;;;;;;;9.86;90.13;98923.75;7395701;19;20421;-60
2023/12/11 06:02:18;;;;;;;22.15;4.55;;;;;;;9.89;89.96;98928.63;7395030;19;20381;-58
2023/12/11 06:04:45;;;;;;;19.97;4.87;;;;;;;9.89;90.14;98923.34;7384131;19;20878;-60
2023/12/11 06:07:12;;;;;;;15.82;4.65;;;;;;;9.93;90.46;98935.13;7395112;19;20347;-59
2023/12/11 06:09:39;;;;;;;17.88;4.80;;;;;;;9.94;90.54;98926.94;7395809;19;20757;-59
2023/12/11 06:12:07;;;;;;;21.60;4.97;;;;;;;9.95;90.21;98935.72;7396097;19;20370;-58
2023/12/11 06:14:34;;;;;;;19.98;4.13;;;;;;;9.96;90.05;98929.38;7395226;19;20361;-58
2023/12/11 06:17:00;;;;;;;15.95;4.50;;;;;;;10.02;90.06;98939.13;7395232;19;20431;-61
2023/12/11 06:19:27;;;;;;;20.73;4.75;;;;;;;10.04;90.18;98941.56;7394493;19;20829;-58
2023/12/11 06:21:54;;;;;;;21.42;4.35;;;;;;;10.06;90.64;98950.91;7394119;19;20352;-61
2023/12/11 06:24:21;;;;;;;21.20;4.57;;;;;;;10.08;91.23;98938.28;7394575;19;20390;-63
2023/12/11 06:26:48;;;;;;;21.25;4.53;;;;;;;10.04;91.90;98931.78;7395443;19;20768;-64
2023/12/11 06:29:15;;;;;;;20.07;5.53;;;;;;;9.98;92.68;98925.50;7395901;19;20423;-68
2023/12/11 06:31:42;;;;;;;18.30;4.60;;;;;;;9.92;93.16;98933.47;7395024;19;20352;-68
2023/12/11 06:34:08;;;;;;;16.38;4.60;;;;;;;9.86;93.69;98935.16;7394682;19;20935;-68
2023/12/11 06:36:35;;;;;;;15.98;4.20;;;;;;;9.78;94.40;98922.97;7394910;19;20372;-68
2023/12/11 06:39:02;;;;;;;24.05;4.82;;;;;;;9.73;95.04;98922.81;7390805;19;20420;-68
2023/12/11 06:41:29;;;;;;;22.55;4.78;;;;;;;9.70;95.48;98931.19;7389373;19;20904;-68
2023/12/11 06:43:57;;;;;;;22.00;4.68;;;;;;;9.66;95.92;98913.28;7380069;19;20933;-69
2023/12/11 06:46:28;;;;;;;26.05;5.90;;;;;;;9.64;96.37;98929.38;7394190;19;20446;-68
2023/12/11 06:48:56;;;;;;;26.40;5.67;;;;;;;9.61;96.43;98923.72;7393595;19;20743;-68
2023/12/11 06:51:25;;;;;;;22.33;5.80;;;;;;;9.56;97.67;98929.63;7393070;19;20368;-68
2023/12/11 06:53:58;;;;;;;20.08;4.88;;;;;;;9.50;97.85;98926.00;7394858;19;20715;-69
2023/12/11 06:56:27;;;;;;;19.35;4.47;;;;;;;9.44;98.43;98936.63;7393660;19;20414;-69
2023/12/11 06:58:54;;;;;;;19.98;4.90;;;;;;;9.37;98.98;98941.91;7392321;19;20449;-69
2023/12/11 07:01:25;;;;;;;21.23;5.53;;;;;;;9.27;99.64;98931.78;7392452;19;20401;-68
2023/12/11 07:03:53;;;;;;;17.67;5.53;;;;;;;9.21;100.00;98951.16;7392363;19;20410;-69
2023/12/11 07:06:20;;;;;;;17.38;4.25;;;;;;;9.15;100.00;98944.03;7394353;19;20375;-68
2023/12/11 07:08:47;;;;;;;19.77;4.35;;;;;;;9.10;100.00;98946.50;7393460;19;20345;-69
2023/12/11 07:11:14;;;;;;;20.90;5.05;;;;;;;9.07;100.00;98938.97;7393880;19;21288;-69
2023/12/11 07:13:44;;;;;;;16.50;4.57;;;;;;;9.03;100.00;98927.19;7392139;19;20364;-68
2023/12/11 07:16:12;;;;;;;20.73;4.43;;;;;;;8.99;100.00;98940.03;7391235;19;20440;-69
2023/12/11 07:18:41;;;;;;;22.50;5.60;;;;;;;9.01;100.00;98931.88;7393358;19;20361;-69
2023/12/11 07:21:08;;;;;;;19.65;4.88;;;;;;;8.94;100.00;98948.56;7394028;19;20401;-68
2023/12/11 07:23:36;;;;;;;16.50;4.63;;;;;;;8.93;100.00;98940.88;7394031;19;20394;-67
2023/12/11 07:26:07;;;;;;;18.80;4.30;;;;;;;8.92;100.00;98940.03;7391681;19;20735;-68
2023/12/11 07:28:36;;;;;;;16.17;3.90;;;;;;;8.93;100.00;98946.16;7389968;19;20402;-68
2023/12/11 07:31:03;;;;;;;18.30;3.95;;;;;;;8.90;100.00;98949.19;7391588;19;20395;-68
2023/12/11 07:33:31;;;;;;;20.23;5.20;;;;;;;8.88;100.00;98941.50;7392286;19;20389;-68
2023/12/11 07:35:58;;;;;;;16.88;4.13;;;;;;;8.87;100.00;98942.50;7391159;19;20369;-68
2023/12/11 07:38:25;;;;;;;17.70;3.95;;;;;;;8.88;100.00;98946.78;7393001;19;20381;-67
2023/12/11 07:40:54;;;;;;;21.60;6.00;;;;;;;8.93;100.00;98936.38;7392032;19;20364;-68
2023/12/11 07:43:21;;;;;;;18.95;5.43;;;;;;;8.95;100.00;98931.69;7391371;19;20372;-68
2023/12/11 07:45:48;;;;;;;17.30;3.45;;;;;;;8.96;100.00;98935.16;7391740;19;20902;-67
2023/12/11 07:48:15;;;;;;;18.55;3.95;;;;;;;8.98;100.00;98935.75;7393039;19;20380;-67
2023/12/11 07:50:42;;;;;;;20.33;4.72;;;;;;;8.98;100.00;98931.25;7391460;19;20397;-67
2023/12/11 07:53:09;;;;;;;19.38;4.60;;;;;;;9.01;100.00;98940.66;7392234;19;20392;-67
2023/12/11 07:55:36;;;;;;;17.13;4.07;;;;;;;9.03;100.00;98930.66;7392683;19;20344;-67
2023/12/11 07:58:03;;;;;;;17.55;3.90;;;;;;;9.03;100.00;98935.13;7391766;19;20368;-67
2023/12/11 08:00:31;;;;;;;21.75;4.32;;;;;;;9.02;100.00;98923.75;7391883;19;20392;-67
2023/12/11 08:02:58;;;;;;;16.98;4.20;;;;;;;9.04;100.00;98932.28;7391651;19;20345;-66
2023/12/11 08:05:25;;;;;;;14.70;3.83;;;;;;;9.03;100.00;98930.66;7391313;19;20907;-66
2023/12/11 08:07:52;;;;;;;15.60;4.50;;;;;;;9.03;100.00;98927.19;7392216;19;20357;-66
2023/12/11 08:10:19;;;;;;;15.30;3.67;;;;;;;9.08;100.00;98925.56;7392320;19;20436;-65
2023/12/11 08:12:52;;;;;;;19.65;4.45;;;;;;;9.08;100.00;98927.41;7389581;19;20373;-66
2023/12/11 08:15:19;;;;;;;20.53;4.73;;;;;;;9.14;100.00;98922.06;7390604;19;20390;-67
2023/12/11 08:17:46;;;;;;;16.70;3.88;;;;;;;9.13;100.00;98924.91;7392515;19;20381;-68
2023/12/11 08:20:16;;;;;;;17.10;4.23;;;;;;;9.16;100.00;98930.63;7394984;19;20852;-68
2023/12/11 08:22:45;;;;;;;20.73;4.05;;;;;;;9.21;100.00;98929.97;7398004;19;20434;-68
2023/12/11 08:25:12;;;;;;;20.58;4.20;;;;;;;9.23;100.00;98935.88;7398370;19;21091;-67
2023/12/11 08:27:41;;;;;;;16.03;3.50;;;;;;;9.28;100.00;98933.41;7399117;19;20910;-67
2023/12/11 08:30:10;;;;;;;15.23;4.03;;;;;;;9.22;100.00;98939.53;7399307;19;20909;-67
2023/12/11 08:32:39;;;;;;;12.68;3.88;;;;;;;9.25;100.00;98933.84;7398948;19;20437;-67
2023/12/11 08:35:07;;;;;;;14.77;4.50;;;;;;;9.22;100.00;98938.72;7399445;19;20422;-68
2023/12/11 08:37:36;;;;;;;18.30;3.65;;;;;;;9.17;100.00;98934.06;7399465;19;20707;-67
2023/12/11 08:40:06;;;;;;;15.50;3.70;;;;;;;9.15;100.00;98920.22;7396938;19;20336;-68
2023/12/11 08:42:33;;;;;;;13.97;4.00;;;;;;;9.20;100.00;98923.06;7397964;19;20466;-68
2023/12/11 08:45:07;;;;;;;13.48;3.10;;;;;;;9.17;100.00;98932.22;7395318;19;20779;-67
2023/12/11 08:47:34;;;;;;;17.30;3.47;;;;;;;9.21;100.00;98926.53;7399174;19;20368;-67
2023/12/11 08:50:06;;;;;;;15.60;3.22;;;;;;;9.26;100.00;98930.16;7398483;19;20440;-67
2023/12/11 08:52:33;;;;;;;14.90;3.13;;;;;;;9.23;100.00;98920.00;7397642;19;20397;-67
2023/12/11 08:55:00;;;;;;;13.45;2.65;;;;;;;9.28;100.00;98917.53;7398534;19;20352;-67
2023/12/11 08:57:28;;;;;;;10.67;2.87;;;;;;;9.29;100.00;98924.47;7397841;19;20451;-66
2023/12/11 08:59:57;;;;;;;10.10;2.50;;;;;;;9.37;100.00;98916.28;7397879;19;20355;-66
2023/12/11 09:02:24;;;;;;;11.38;3.42;;;;;;;9.44;100.00;98915.44;7396315;19;20360;-66
2023/12/11 09:04:51;;;;;;;15.52;4.00;;;;;;;9.51;100.00;98917.03;7394885;19;20363;-66
2023/12/11 09:07:18;;;;;;;12.88;3.42;;;;;;;9.54;100.00;98915.78;7395942;19;20407;-66
2023/12/11 09:09:45;;;;;;;10.52;2.70;;;;;;;9.56;100.00;98909.28;7397873;19;20361;-66
2023/12/11 09:12:12;;;;;;;9.40;2.75;;;;;;;9.59;100.00;98921.28;7396879;19;20372;-65
2023/12/11 09:14:56;;;;;;;10.65;2.70;;;;;;;9.63;100.00;98913.69;7396788;19;20357;-66
2023/12/11 09:17:23;;;;;;;12.23;3.22;;;;;;;9.64;100.00;98916.13;7397748;19;20337;-66
2023/12/11 09:19:50;;;;;;;10.32;2.53;;;;;;;9.68;100.00;98909.41;7396487;19;20436;-65
2023/12/11 09:22:22;;;;;;;13.88;2.60;;;;;;;9.66;100.00;98910.63;7395898;19;20369;-65
2023/12/11 09:24:49;;;;;;;9.40;2.47;;;;;;;9.64;99.80;98924.06;7396158;19;20367;-65
2023/12/11 09:27:16;;;;;;;7.50;2.35;;;;;;;9.64;99.75;98913.50;7397892;19;20356;-65
2023/12/11 09:29:43;;;;;;;10.00;2.53;;;;;;;9.67;99.74;98914.91;7395925;19;20356;-65
2023/12/11 09:32:10;;;;;;;10.05;2.40;;;;;;;9.69;99.86;98911.03;7394259;19;20348;-65
2023/12/11 09:34:37;;;;;;;7.93;2.10;;;;;;;9.64;99.67;98896.81;7397445;19;20513;-65
2023/12/11 09:37:04;;;;;;;8.40;2.30;;;;;;;9.64;99.61;98904.75;7396903;19;20368;-64
2023/12/11 09:39:31;;;;;;;9.45;2.70;;;;;;;9.62;99.93;98910.25;7395993;19;20337;-64
2023/12/11 09:41:59;;;;;;;9.10;3.17;;;;;;;9.60;100.00;98909.63;7397580;19;20424;-65
2023/12/11 09:44:26;;;;;;;9.13;2.75;;;;;;;9.55;100.00;98910.28;7394926;19;20356;-66
2023/12/11 09:47:16;;;;;;;8.23;2.35;;;;;;;9.54;100.00;98915.78;7397833;19;20387;-66
2023/12/11 09:49:45;;;;;;;8.38;2.40;;;;;;;9.52;100.00;98912.53;7397695;19;20780;-67
2023/12/11 09:52:15;;;;;;;11.45;3.17;;;;;;;9.53;100.00;98899.09;7396572;19;20363;-67
2023/12/11 09:54:42;;;;;;;10.57;3.30;;;;;;;9.49;100.00;98911.13;7395670;19;20730;-67
2023/12/11 09:57:14;;;;;;;10.70;2.92;;;;;;;9.51;100.00;98902.97;7393001;19;20381;-67
2023/12/11 09:59:42;;;;;;;10.20;3.13;;;;;;;9.48;100.00;98900.75;7393508;19;20404;-68
2023/12/11 10:02:14;;;;;;;11.32;3.03;;;;;;;9.47;100.00;98901.78;7394140;19;20389;-69
2023/12/11 10:05:08;;;;;;;14.68;3.67;;;;;;;9.38;100.00;98902.03;7395334;19;20364;-70
2023/12/11 10:07:42;;;;;;;12.93;3.65;;;;;;;9.36;100.00;98888.19;7394138;19;20419;-69
2023/12/11 10:10:30;;;;;;;12.88;3.55;;;;;;;9.36;100.00;98898.78;7396414;19;20357;-69
2023/12/11 10:12:58;;;;;;;11.13;3.60;;;;;;;9.32;100.00;98891.47;7394653;19;20452;-69
2023/12/11 10:15:33;;;;;;;14.55;4.15;;;;;;;9.31;100.00;98893.31;7395478;19;20360;-69
2023/12/11 10:18:02;;;;;;;14.25;3.58;;;;;;;9.35;100.00;98876.00;7395604;19;20469;-69
2023/12/11 10:20:30;;;;;;;14.13;3.80;;;;;;;9.39;100.00;98871.91;7393933;19;20723;-68
2023/12/11 10:22:57;;;;;;;14.50;4.07;;;;;;;9.42;100.00;98880.44;7395133;19;20365;-68
2023/12/11 10:25:30;;;;;;;14.18;3.90;;;;;;;9.39;100.00;98877.19;7393627;19;20420;-68
2023/12/11 10:28:10;;;;;;;15.60;4.20;;;;;;;9.41;100.00;98881.44;7394076;19;20893;-68
2023/12/11 10:31:01;;;;;;;15.43;4.35;;;;;;;9.39;100.00;98871.91;7395345;19;20403;-68
2023/12/11 10:33:32;;;;;;;12.17;3.73;;;;;;;9.41;100.00;98865.56;7394935;19;20443;-68
2023/12/11 10:36:12;;;;;;;12.55;3.60;;;;;;;9.41;100.00;98873.50;7394845;19;20394;-68
2023/12/11 10:38:39;;;;;;;11.68;3.58;;;;;;;9.38;100.00;98864.16;7395293;19;20387;-68
2023/12/11 10:41:06;;;;;;;12.27;3.47;;;;;;;9.44;100.00;98854.56;7392944;19;20356;-68
2023/12/11 10:43:43;;;;;;;13.13;3.90;;;;;;;9.43;100.00;98860.88;7393166;19;20682;-68
2023/12/11 10:46:30;;;;;;;12.50;3.40;;;;;;;9.46;100.00;98860.47;7394148;19;20732;-68
2023/12/11 10:49:00;;;;;;;12.43;3.53;;;;;;;9.46;100.00;98852.53;7393992;19;20919;-68
2023/12/11 10:51:28;;;;;;;11.33;3.20;;;;;;;9.43;100.00;98851.09;7394812;19;20434;-68
2023/12/11 10:53:56;;;;;;;12.80;3.22;;;;;;;9.39;100.00;98850.72;7394858;19;20394;-67
2023/12/11 10:56:25;;;;;;;9.77;3.08;;;;;;;9.41;100.00;98847.03;7394058;19;20348;-67
2023/12/11 10:58:53;;;;;;;12.43;3.25;;;;;;;9.40;100.00;98848.88;7392664;19;20429;-66
2023/12/11 11:01:20;;;;;;;11.20;2.95;;;;;;;9.39;100.00;98850.72;7392495;19;20748;-67
2023/12/11 11:03:49;;;;;;;8.18;2.30;;;;;;;9.36;100.00;98843.19;7391360;19;20424;-67
2023/12/11 11:06:17;;;;;;;10.30;3.10;;;;;;;9.37;100.00;98836.06;7393173;19;20378;-67
2023/12/11 11:08:54;;;;;;;12.75;3.50;;;;;;;9.37;100.00;98844.00;7394080;19;20430;-66
2023/12/11 11:11:37;;;;;;;8.90;2.30;;;;;;;9.41;100.00;98837.25;7393885;19;20755;-67
2023/12/11 11:14:29;;;;;;;7.18;2.20;;;;;;;9.44;100.00;98844.00;7392611;19;20409;-67
2023/12/11 11:17:01;;;;;;;9.00;2.58;;;;;;;9.47;100.00;98830.31;7393021;19;20344;-66
2023/12/11 11:19:29;;;;;;;7.68;2.10;;;;;;;9.43;100.00;98829.94;7393121;19;20376;-67
2023/12/11 11:22:00;;;;;;;7.43;3.40;;;;;;;9.44;100.00;98844.00;7393333;19;20392;-67
2023/12/11 11:24:28;;;;;;;7.05;3.40;;;;;;;9.49;100.00;98839.66;7393479;19;20344;-67
2023/12/11 11:26:56;;;;;;;6.55;3.00;;;;;;;9.53;100.00;98834.75;7390536;19;20359;-67
2023/12/11 11:29:43;;;;;;;9.90;3.88;;;;;;;9.48;100.00;98827.47;7393683;19;20359;-67
2023/12/11 11:32:11;;;;;;;6.60;2.43;;;;;;;9.54;100.00;98831.06;7393434;19;20459;-67
2023/12/11 11:34:41;;;;;;;5.83;2.50;;;;;;;9.55;100.00;98836.16;7392931;19;20708;-67